createdAt,value
2019-04-20T00:00:56.004Z,102448.80
2019-04-20T00:03:32.247Z,102442.86
2019-04-20T00:05:57.332Z,102441.37
2019-04-20T00:08:31.089Z,102440.23
2019-04-20T00:11:05.772Z,102443.39
2019-04-20T00:13:42.537Z,102440.98
2019-04-20T00:16:04.296Z,102439.84
2019-04-20T00:18:41.317Z,102435.67
2019-04-20T00:21:23.160Z,102428.56
2019-04-20T00:23:56.615Z,102432.18
2019-04-20T00:27:04.435Z,102431.09
2019-04-20T00:29:25.451Z,102432.16
2019-04-20T00:31:49.126Z,102434.55
2019-04-20T00:34:20.328Z,102439.19
2019-04-20T00:36:41.437Z,102434.70
2019-04-20T00:39:13.624Z,102433.03
2019-04-20T00:41:48.948Z,102429.80
2019-04-20T00:44:20.672Z,102429.39
2019-04-20T00:47:01.001Z,102434.72
2019-04-20T00:49:31.013Z,102429.72
2019-04-20T00:52:18.799Z,102431.56
2019-04-20T00:54:20.628Z,102429.94
2019-04-20T00:56:50.298Z,102427.15
2019-04-20T00:59:32.286Z,102432.07
2019-04-20T01:02:10.869Z,102435.23
2019-04-20T01:04:44.753Z,102429.28
2019-04-20T01:07:20.761Z,102432.03
2019-04-20T01:10:09.211Z,102432.48
2019-04-20T01:12:41.000Z,102435.72
2019-04-20T01:15:23.110Z,102434.62
2019-04-20T01:17:43.907Z,102438.71
2019-04-20T01:20:14.296Z,102437.52
2019-04-20T01:22:53.586Z,102443.30
2019-04-20T01:25:22.076Z,102446.00
2019-04-20T01:28:06.735Z,102450.99
2019-04-20T01:30:28.375Z,102438.95
2019-04-20T01:33:03.502Z,102444.72
2019-04-20T01:35:39.607Z,102438.70
2019-04-20T01:38:11.325Z,102447.09
2019-04-20T01:40:25.504Z,102448.93
2019-04-20T01:42:55.432Z,102452.94
2019-04-20T01:45:29.277Z,102454.37
2019-04-20T01:47:59.542Z,102450.59
2019-04-20T01:50:33.273Z,102446.41
2019-04-20T01:53:10.001Z,102453.08
2019-04-20T01:55:48.176Z,102454.55
2019-04-20T01:58:32.595Z,102462.59
2019-04-20T02:00:55.900Z,102467.91
2019-04-20T02:03:46.196Z,102462.87
2019-04-20T02:06:18.323Z,102459.13
2019-04-20T02:08:46.283Z,102464.07
2019-04-20T02:11:21.950Z,102467.73
2019-04-20T02:13:54.590Z,102463.48
2019-04-20T02:16:28.908Z,102463.14
2019-04-20T02:19:09.292Z,102463.22
2019-04-20T02:21:39.716Z,102464.60
2019-04-20T02:23:59.333Z,102468.31
2019-04-20T02:26:26.079Z,102468.45
2019-04-20T02:29:18.973Z,102467.19
2019-04-20T02:37:45.081Z,102458.48
2019-04-20T02:40:01.875Z,102465.13
2019-04-20T02:42:34.174Z,102457.05
2019-04-20T02:45:08.953Z,102463.63
2019-04-20T02:50:06.951Z,102463.96
2019-04-20T02:52:56.339Z,102461.53
2019-04-20T02:55:14.614Z,102465.00
2019-04-20T02:57:47.871Z,102458.61
2019-04-20T03:00:12.312Z,102455.98
2019-04-20T03:02:27.512Z,102456.51
2019-04-20T03:04:56.174Z,102455.31
2019-04-20T03:07:31.508Z,102458.00
2019-04-20T03:10:05.515Z,102455.56
2019-04-20T03:12:38.397Z,102450.85
2019-04-20T03:15:01.643Z,102455.74
2019-04-20T03:17:44.444Z,102455.81
2019-04-20T03:20:10.657Z,102456.78
2019-04-20T03:23:05.529Z,102455.55
2019-04-20T03:25:24.192Z,102452.21
2019-04-20T03:27:59.262Z,102459.27
2019-04-20T03:35:50.908Z,102458.31
2019-04-20T03:38:14.206Z,102463.68
2019-04-20T03:40:40.189Z,102460.72
2019-04-20T03:42:59.601Z,102455.30
2019-04-20T03:45:39.428Z,102451.09
2019-04-20T03:48:14.057Z,102459.00
2019-04-20T03:50:50.408Z,102460.76
2019-04-20T03:53:29.822Z,102459.11
2019-04-20T03:56:19.700Z,102464.41
2019-04-20T03:58:47.377Z,102459.69
2019-04-20T04:01:45.950Z,102457.66
2019-04-20T04:04:05.166Z,102454.30
2019-04-20T04:06:24.339Z,102453.19
2019-04-20T04:08:58.668Z,102461.98
2019-04-20T04:11:35.143Z,102464.70
2019-04-20T04:13:50.309Z,102466.08
2019-04-20T04:16:22.114Z,102462.67
2019-04-20T04:19:01.389Z,102458.81
2019-04-20T04:21:40.917Z,102464.14
2019-04-20T04:24:09.432Z,102458.70
2019-04-20T04:26:44.146Z,102467.98
2019-04-20T04:29:27.169Z,102466.25
2019-04-20T04:32:01.111Z,102468.52
2019-04-20T04:34:22.848Z,102460.75
2019-04-20T04:36:59.330Z,102455.28
2019-04-20T04:39:33.945Z,102455.28
2019-04-20T04:42:07.505Z,102463.52
2019-04-20T04:44:24.190Z,102470.15
2019-04-20T04:46:49.535Z,102465.44
2019-04-20T04:49:19.528Z,102472.09
2019-04-20T04:51:56.854Z,102472.60
2019-04-20T04:54:28.441Z,102472.70
2019-04-20T04:56:48.407Z,102470.50
2019-04-20T04:59:19.299Z,102479.13
2019-04-20T05:01:53.529Z,102475.22
2019-04-20T05:05:08.606Z,102473.94
2019-04-20T05:07:40.069Z,102474.36
2019-04-20T05:09:57.386Z,102482.00
2019-04-20T05:12:31.340Z,102482.80
2019-04-20T05:15:07.883Z,102482.28
2019-04-20T05:17:51.145Z,102488.30
2019-04-20T05:20:24.226Z,102492.95
2019-04-20T05:22:58.712Z,102492.83
2019-04-20T05:26:03.773Z,102500.66
2019-04-20T05:28:24.256Z,102493.23
2019-04-20T05:30:46.912Z,102501.36
2019-04-20T05:33:27.053Z,102499.09
2019-04-20T05:36:10.018Z,102500.11
2019-04-20T05:38:42.058Z,102502.84
2019-04-20T05:41:08.820Z,102502.53
2019-04-20T05:43:41.173Z,102502.86
2019-04-20T05:46:25.299Z,102498.91
2019-04-20T05:48:50.534Z,102508.61
2019-04-20T05:51:33.385Z,102498.32
2019-04-20T05:53:50.115Z,102502.38
2019-04-20T05:56:32.300Z,102501.44
2019-04-20T05:58:58.091Z,102498.31
2019-04-20T06:01:34.497Z,102495.56
2019-04-20T06:03:59.369Z,102499.50
2019-04-20T06:06:32.812Z,102500.84
2019-04-20T06:12:02.946Z,102509.89
2019-04-20T06:14:08.027Z,102506.53
2019-04-20T06:17:02.804Z,102510.26
2019-04-20T06:19:35.854Z,102505.49
2019-04-20T06:22:28.564Z,102503.19
2019-04-20T06:25:21.867Z,102506.00
2019-04-20T06:27:39.971Z,102505.61
2019-04-20T06:30:08.233Z,102502.91
2019-04-20T06:33:37.372Z,102503.69
2019-04-20T06:36:07.362Z,102509.40
2019-04-20T06:38:43.863Z,102504.17
2019-04-20T06:41:13.979Z,102509.29
2019-04-20T06:43:25.589Z,102512.76
2019-04-20T06:46:04.361Z,102508.00
2019-04-20T06:48:37.035Z,102508.44
2019-04-20T06:50:56.866Z,102510.06
2019-04-20T06:53:45.211Z,102514.63
2019-04-20T06:56:38.042Z,102505.14
2019-04-20T06:59:08.197Z,102505.14
2019-04-20T07:01:41.924Z,102513.97
2019-04-20T07:04:24.774Z,102506.50
2019-04-20T07:06:54.890Z,102511.91
2019-04-20T07:09:20.002Z,102504.39
2019-04-20T07:11:43.979Z,102508.92
2019-04-20T07:13:59.358Z,102509.35
2019-04-20T07:17:07.293Z,102506.95
2019-04-20T07:19:45.513Z,102508.29
2019-04-20T07:22:46.543Z,102504.16
2019-04-20T07:25:16.084Z,102515.88
2019-04-20T07:27:48.962Z,102506.16
2019-04-20T07:30:17.572Z,102514.77
2019-04-20T07:33:04.116Z,102523.59
2019-04-20T07:35:19.671Z,102521.95
2019-04-20T07:40:26.912Z,102522.81
2019-04-20T07:42:59.257Z,102526.72
2019-04-20T07:45:35.082Z,102530.86
2019-04-20T07:48:09.307Z,102528.82
2019-04-20T07:50:29.123Z,102531.52
2019-04-20T07:52:58.857Z,102532.06
2019-04-20T07:55:44.712Z,102536.52
2019-04-20T07:58:01.370Z,102536.59
2019-04-20T08:00:51.887Z,102536.45
2019-04-20T08:03:39.467Z,102528.25
2019-04-20T08:06:02.382Z,102529.77
2019-04-20T08:08:47.648Z,102529.66
2019-04-20T08:11:25.658Z,102531.97
2019-04-20T08:14:00.297Z,102527.88
2019-04-20T08:16:32.998Z,102530.73
2019-04-20T08:18:53.574Z,102531.62
2019-04-20T08:21:32.723Z,102534.77
2019-04-20T08:24:02.025Z,102527.42
2019-04-20T08:26:21.316Z,102528.21
2019-04-20T08:29:01.409Z,102528.16
2019-04-20T08:31:55.803Z,102531.09
2019-04-20T08:34:31.235Z,102532.10
2019-04-20T08:36:56.712Z,102531.37
2019-04-20T08:42:00.526Z,102532.55
2019-04-20T08:47:10.235Z,102529.86
2019-04-20T08:49:41.099Z,102528.70
2019-04-20T08:52:31.804Z,102525.34
2019-04-20T08:54:34.372Z,102522.79
2019-04-20T08:56:56.485Z,102526.49
2019-04-20T08:59:23.436Z,102525.58
2019-04-20T09:01:58.094Z,102519.45
2019-04-20T09:04:37.114Z,102515.45
2019-04-20T09:07:07.728Z,102511.96
2019-04-20T09:09:49.422Z,102508.58
2019-04-20T09:12:14.554Z,102516.78
2019-04-20T09:14:37.625Z,102511.64
2019-04-20T09:17:33.118Z,102507.14
2019-04-20T09:20:02.892Z,102499.17
2019-04-20T09:22:49.504Z,102500.64
2019-04-20T09:25:48.812Z,102502.27
2019-04-20T09:28:18.879Z,102501.09
2019-04-20T09:30:56.807Z,102502.19
2019-04-20T09:34:02.780Z,102505.48
2019-04-20T09:36:49.878Z,102504.20
2019-04-20T09:39:32.694Z,102508.28
2019-04-20T09:42:02.854Z,102508.95
2019-04-20T09:44:40.908Z,102503.66
2019-04-20T09:47:10.014Z,102500.30
2019-04-20T09:49:51.960Z,102497.66
2019-04-20T09:52:21.153Z,102499.06
2019-04-20T09:54:59.236Z,102502.98
2019-04-20T09:57:33.426Z,102499.69
2019-04-20T10:00:01.373Z,102505.53
2019-04-20T10:02:24.065Z,102497.67
2019-04-20T10:04:49.386Z,102501.05
2019-04-20T10:07:24.246Z,102489.03
2019-04-20T10:09:52.099Z,102490.05
2019-04-20T10:12:26.117Z,102491.22
2019-04-20T10:14:57.573Z,102487.55
2019-04-20T10:17:30.481Z,102491.89
2019-04-20T10:20:02.478Z,102489.55
2019-04-20T10:22:31.208Z,102487.19
2019-04-20T10:25:02.539Z,102484.50
2019-04-20T10:27:32.854Z,102479.80
2019-04-20T10:30:05.899Z,102483.81
2019-04-20T10:32:40.297Z,102472.76
2019-04-20T10:35:06.907Z,102481.97
2019-04-20T10:37:43.486Z,102483.64
2019-04-20T10:40:27.965Z,102484.47
2019-04-20T10:42:46.102Z,102484.25
2019-04-20T10:45:17.043Z,102482.41
2019-04-20T10:47:47.354Z,102477.71
2019-04-20T10:50:18.749Z,102478.78
2019-04-20T10:52:49.977Z,102479.42
2019-04-20T10:55:20.744Z,102473.08
2019-04-20T10:57:51.438Z,102473.08
2019-04-20T11:00:39.701Z,102474.91
2019-04-20T11:03:10.434Z,102473.61
2019-04-20T11:05:42.544Z,102473.09
2019-04-20T11:08:12.921Z,102464.33
2019-04-20T11:10:55.638Z,102466.48
2019-04-20T11:13:15.202Z,102460.03
2019-04-20T11:15:46.304Z,102466.38
2019-04-20T11:18:17.729Z,102458.83
2019-04-20T11:20:47.485Z,102464.55
2019-04-20T11:23:18.211Z,102457.53
2019-04-20T11:25:48.439Z,102459.20
2019-04-20T11:28:19.662Z,102456.98
2019-04-20T11:30:50.134Z,102456.83
2019-04-20T11:33:20.446Z,102457.75
2019-04-20T11:35:51.478Z,102441.95
2019-04-20T11:38:21.990Z,102446.06
2019-04-20T11:41:06.275Z,102441.69
2019-04-20T11:43:23.962Z,102435.64
2019-04-20T11:45:54.424Z,102443.34
2019-04-20T11:48:25.492Z,102439.32
2019-04-20T11:50:57.891Z,102427.66
2019-04-20T11:53:28.619Z,102429.11
2019-04-20T11:55:58.717Z,102430.42
2019-04-20T11:58:28.528Z,102424.82
2019-04-20T12:01:04.241Z,102425.41
2019-04-20T12:03:41.658Z,102423.66
2019-04-20T12:06:04.978Z,102418.38
2019-04-20T12:08:36.040Z,102411.86
2019-04-20T12:11:20.458Z,102410.86
2019-04-20T12:13:36.907Z,102406.30
2019-04-20T12:16:07.713Z,102400.45
2019-04-20T12:18:37.979Z,102400.54
2019-04-20T12:21:08.540Z,102406.42
2019-04-20T12:23:38.325Z,102405.70
2019-04-20T12:26:08.920Z,102403.64
2019-04-20T12:28:40.109Z,102406.64
2019-04-20T12:31:13.717Z,102405.45
2019-04-20T12:33:42.278Z,102402.64
2019-04-20T12:36:14.242Z,102395.46
2019-04-20T12:38:43.791Z,102394.92
2019-04-20T12:41:14.380Z,102404.16
2019-04-20T12:43:43.593Z,102400.70
2019-04-20T12:46:14.955Z,102400.73
2019-04-20T12:48:42.030Z,102398.12
2019-04-20T12:51:11.378Z,102394.08
2019-04-20T12:53:53.205Z,102401.26
2019-04-20T12:56:24.471Z,102396.06
2019-04-20T12:58:55.788Z,102387.42
2019-04-20T13:01:26.057Z,102386.53
2019-04-20T13:03:57.409Z,102381.12
2019-04-20T13:06:28.011Z,102387.69
2019-04-20T13:09:01.017Z,102385.40
2019-04-20T13:11:46.241Z,102378.95
2019-04-20T13:14:33.155Z,102376.23
2019-04-20T13:17:04.083Z,102372.16
2019-04-20T13:19:35.158Z,102368.59
2019-04-20T13:22:05.575Z,102375.42
2019-04-20T13:24:36.953Z,102366.34
2019-04-20T13:27:07.027Z,102366.16
2019-04-20T13:29:38.150Z,102364.22
2019-04-20T13:32:09.658Z,102357.11
2019-04-20T13:34:40.318Z,102364.22
2019-04-20T13:37:10.609Z,102366.31
2019-04-20T13:39:40.852Z,102356.69
2019-04-20T13:42:17.611Z,102356.44
2019-04-20T13:44:43.233Z,102347.39
2019-04-20T13:47:14.627Z,102347.42
2019-04-20T13:49:45.206Z,102346.80
2019-04-20T13:52:20.622Z,102346.14
2019-04-20T13:54:53.914Z,102339.08
2019-04-20T13:57:30.030Z,102339.73
2019-04-20T14:00:26.328Z,102338.13
2019-04-20T14:03:02.817Z,102332.09
2019-04-20T14:05:35.071Z,102320.99
2019-04-20T14:08:09.373Z,102327.88
2019-04-20T14:10:39.685Z,102323.00
2019-04-20T14:13:16.554Z,102316.44
2019-04-20T14:15:42.903Z,102316.96
2019-04-20T14:18:13.319Z,102310.08
2019-04-20T14:20:44.668Z,102312.31
2019-04-20T14:23:15.065Z,102312.13
2019-04-20T14:25:45.148Z,102306.55
2019-04-20T14:28:15.410Z,102303.34
2019-04-20T14:30:45.945Z,102307.70
2019-04-20T14:33:16.905Z,102299.22
2019-04-20T14:35:48.325Z,102294.09
2019-04-20T14:38:18.399Z,102303.53
2019-04-20T14:40:50.353Z,102296.22
2019-04-20T14:43:21.138Z,102302.45
2019-04-20T14:45:52.462Z,102296.25
2019-04-20T14:48:22.794Z,102287.55
2019-04-20T14:50:53.946Z,102290.09
2019-04-20T14:53:25.386Z,102292.50
2019-04-20T14:55:55.625Z,102288.48
2019-04-20T14:58:57.903Z,102285.64
2019-04-20T15:01:34.854Z,102288.63
2019-04-20T15:04:12.846Z,102288.14
2019-04-20T15:06:39.906Z,102272.73
2019-04-20T15:09:10.811Z,102271.73
2019-04-20T15:11:42.955Z,102272.06
2019-04-20T15:14:12.801Z,102276.75
2019-04-20T15:16:43.019Z,102271.22
2019-04-20T15:19:35.768Z,102268.71
2019-04-20T15:22:09.380Z,102265.33
2019-04-20T15:24:39.735Z,102267.16
2019-04-20T15:27:10.173Z,102267.16
2019-04-20T15:29:40.178Z,102259.11
2019-04-20T15:32:10.336Z,102265.47
2019-04-20T15:34:40.140Z,102254.56
2019-04-20T15:37:10.026Z,102260.42
2019-04-20T15:39:41.125Z,102261.09
2019-04-20T15:42:11.571Z,102254.92
2019-04-20T15:44:41.382Z,102256.91
2019-04-20T15:47:11.263Z,102253.72
2019-04-20T15:49:41.997Z,102251.03
2019-04-20T15:52:17.896Z,102248.66
2019-04-20T15:54:43.708Z,102248.80
2019-04-20T15:57:18.422Z,102246.91
2019-04-20T15:59:46.367Z,102243.91
2019-04-20T16:02:21.362Z,102241.72
2019-04-20T16:04:58.670Z,102243.37
2019-04-20T16:07:31.281Z,102244.19
2019-04-20T16:10:01.115Z,102243.63
2019-04-20T16:12:33.000Z,102241.41
2019-04-20T16:15:03.970Z,102243.66
2019-04-20T16:17:39.039Z,102244.66
2019-04-20T16:20:10.511Z,102234.56
2019-04-20T16:22:38.513Z,102236.48
2019-04-20T16:25:27.825Z,102227.89
2019-04-20T16:27:57.732Z,102234.41
2019-04-20T16:30:27.692Z,102227.28
2019-04-20T16:32:58.729Z,102233.91
2019-04-20T16:35:28.774Z,102229.19
2019-04-20T16:37:58.698Z,102224.62
2019-04-20T16:40:29.453Z,102227.59
2019-04-20T16:42:58.501Z,102221.66
2019-04-20T16:45:27.573Z,102228.27
2019-04-20T16:47:58.805Z,102221.06
2019-04-20T16:50:26.902Z,102221.64
2019-04-20T16:52:55.258Z,102219.30
2019-04-20T16:55:25.132Z,102225.32
2019-04-20T16:57:53.507Z,102225.39
2019-04-20T17:00:23.140Z,102223.77
2019-04-20T17:02:54.388Z,102216.56
2019-04-20T17:05:25.872Z,102221.16
2019-04-20T17:07:57.371Z,102215.13
2019-04-20T17:10:28.750Z,102216.48
2019-04-20T17:12:59.916Z,102213.16
2019-04-20T17:15:29.875Z,102214.33
2019-04-20T17:17:59.768Z,102215.66
2019-04-20T17:20:30.685Z,102210.16
2019-04-20T17:23:08.660Z,102203.59
2019-04-20T17:25:39.768Z,102202.62
2019-04-20T17:28:24.918Z,102203.14
2019-04-20T17:31:02.944Z,102207.70
2019-04-20T17:33:49.565Z,102210.97
2019-04-20T17:36:15.008Z,102208.88
2019-04-20T17:38:44.590Z,102210.93
2019-04-20T17:41:34.432Z,102206.03
2019-04-20T17:44:01.492Z,102204.02
2019-04-20T17:46:28.800Z,102205.13
2019-04-20T17:49:05.533Z,102206.03
2019-04-20T17:51:46.357Z,102205.14
2019-04-20T17:54:17.707Z,102199.90
2019-04-20T17:56:48.668Z,102201.08
2019-04-20T17:59:20.139Z,102205.12
2019-04-20T18:02:17.528Z,102205.59
2019-04-20T18:05:12.683Z,102204.35
2019-04-20T18:07:41.451Z,102208.88
2019-04-20T18:10:11.415Z,102205.97
2019-04-20T18:12:30.882Z,102208.65
2019-04-20T18:15:12.145Z,102214.50
2019-04-20T18:18:13.670Z,102214.08
2019-04-20T18:20:32.703Z,102212.14
2019-04-20T18:23:02.643Z,102217.28
2019-04-20T18:26:02.853Z,102213.39
2019-04-20T18:28:20.982Z,102213.34
2019-04-20T18:31:07.619Z,102207.74
2019-04-20T18:33:38.813Z,102207.94
2019-04-20T18:36:13.408Z,102210.49
2019-04-20T18:38:46.777Z,102209.30
2019-04-20T18:41:23.179Z,102210.43
2019-04-20T18:43:50.010Z,102213.73
2019-04-20T18:46:34.533Z,102217.16
2019-04-20T18:49:08.773Z,102212.09
2019-04-20T18:51:19.634Z,102210.44
2019-04-20T18:53:51.838Z,102209.98
2019-04-20T18:56:28.354Z,102210.50
2019-04-20T18:58:55.602Z,102203.50
2019-04-20T19:01:33.255Z,102203.54
2019-04-20T19:03:59.599Z,102214.25
2019-04-20T19:06:29.934Z,102213.07
2019-04-20T19:09:00.856Z,102209.69
2019-04-20T19:11:35.444Z,102218.02
2019-04-20T19:14:31.555Z,102218.25
2019-04-20T19:17:08.980Z,102220.88
2019-04-20T19:19:39.888Z,102217.03
2019-04-20T19:22:06.005Z,102221.22
2019-04-20T19:24:37.905Z,102225.41
2019-04-20T19:27:12.047Z,102227.08
2019-04-20T19:29:48.777Z,102228.48
2019-04-20T19:32:23.926Z,102232.31
2019-04-20T19:34:55.290Z,102231.20
2019-04-20T19:37:23.225Z,102234.18
2019-04-20T19:40:01.683Z,102239.34
2019-04-20T19:42:33.257Z,102235.36
2019-04-20T19:45:01.935Z,102234.95
2019-04-20T19:47:38.444Z,102236.99
2019-04-20T19:50:28.529Z,102234.45
2019-04-20T19:52:53.106Z,102239.34
2019-04-20T19:55:14.746Z,102238.33
2019-04-20T19:57:45.530Z,102237.66
2019-04-20T20:00:00.454Z,102247.82
2019-04-20T20:02:31.885Z,102239.80
2019-04-20T20:05:08.561Z,102238.39
2019-04-20T20:07:38.876Z,102241.31
2019-04-20T20:10:09.083Z,102241.75
2019-04-20T20:12:39.914Z,102242.38
2019-04-20T20:15:16.066Z,102244.39
2019-04-20T20:18:01.930Z,102238.69
2019-04-20T20:20:35.979Z,102239.06
2019-04-20T20:22:50.522Z,102238.83
2019-04-20T20:25:18.981Z,102234.72
2019-04-20T20:27:54.725Z,102234.59
2019-04-20T20:30:27.989Z,102236.16
2019-04-20T20:33:04.801Z,102236.69
2019-04-20T20:35:28.744Z,102242.48
2019-04-20T20:37:59.468Z,102240.83
2019-04-20T20:40:32.756Z,102235.69
2019-04-20T20:43:11.116Z,102238.38
2019-04-20T20:45:37.184Z,102238.85
2019-04-20T20:48:15.517Z,102236.62
2019-04-20T20:50:48.777Z,102243.52
2019-04-20T20:53:14.232Z,102237.03
2019-04-20T20:55:42.867Z,102240.06
2019-04-20T20:58:14.910Z,102238.39
2019-04-20T21:00:52.667Z,102238.39
2019-04-20T21:03:22.537Z,102246.02
2019-04-20T21:05:43.102Z,102237.82
2019-04-20T21:08:13.570Z,102237.64
2019-04-20T21:10:46.392Z,102235.90
2019-04-20T21:13:17.284Z,102230.73
2019-04-20T21:15:53.856Z,102234.61
2019-04-20T21:18:40.436Z,102232.64
2019-04-20T21:21:07.639Z,102241.67
2019-04-20T21:23:36.509Z,102235.08
2019-04-20T21:28:23.144Z,102239.34
2019-04-20T21:43:14.635Z,102235.72
2019-04-20T21:45:54.690Z,102230.76
2019-04-20T21:48:40.646Z,102228.86
2019-04-20T21:51:05.848Z,102228.20
2019-04-20T21:53:26.087Z,102223.77
2019-04-20T21:55:52.114Z,102219.25
2019-04-20T21:58:28.063Z,102222.08
2019-04-20T22:01:08.065Z,102221.39
2019-04-20T22:03:32.589Z,102223.00
2019-04-20T22:06:07.047Z,102229.18
2019-04-20T22:08:39.310Z,102222.47
2019-04-20T22:11:08.955Z,102219.74
2019-04-20T22:13:42.662Z,102222.93
2019-04-20T22:16:12.501Z,102220.66
2019-04-20T22:18:52.970Z,102220.85
2019-04-20T22:21:22.591Z,102215.39
2019-04-20T22:24:01.798Z,102215.75
2019-04-20T22:26:30.059Z,102211.40
2019-04-20T22:28:50.124Z,102209.19
2019-04-20T22:31:20.400Z,102200.29
2019-04-20T22:33:50.569Z,102200.29
2019-04-20T22:36:25.939Z,102192.39
2019-04-20T22:39:12.205Z,102195.17
2019-04-20T22:41:53.654Z,102191.12
2019-04-20T22:44:21.394Z,102192.68
2019-04-20T22:46:50.140Z,102190.30
2019-04-20T22:49:35.891Z,102192.72
2019-04-20T22:52:00.239Z,102187.81
2019-04-20T22:54:42.196Z,102192.09
2019-04-20T22:57:05.862Z,102187.57
2019-04-20T22:59:39.865Z,102182.11
2019-04-20T23:02:02.088Z,102185.92
2019-04-20T23:04:30.864Z,102184.95
2019-04-20T23:07:01.068Z,102181.80
2019-04-20T23:09:34.105Z,102182.04
2019-04-20T23:12:08.043Z,102178.98
2019-04-20T23:14:34.314Z,102175.28
2019-04-20T23:17:04.383Z,102174.61
2019-04-20T23:19:42.872Z,102172.31
2019-04-20T23:22:09.901Z,102170.87
2019-04-20T23:24:37.611Z,102171.10
2019-04-20T23:27:16.350Z,102170.48
2019-04-20T23:29:41.490Z,102170.71
2019-04-20T23:32:13.800Z,102172.34
2019-04-20T23:34:42.612Z,102175.28
2019-04-20T23:37:18.243Z,102167.64
2019-04-20T23:39:47.333Z,102166.59
2019-04-20T23:42:19.837Z,102170.08
2019-04-20T23:45:13.720Z,102160.81
2019-04-20T23:47:57.423Z,102156.34
2019-04-20T23:50:41.216Z,102156.11
2019-04-20T23:53:14.003Z,102153.27
2019-04-20T23:55:25.939Z,102153.52
2019-04-20T23:57:59.549Z,102142.94
